Silver Wind — C6FG2 — position and weather

sailwx.info

Track history (hours):
 
Tides and Currents Weather Stations Pressure Air Temp Water Temp Dewpoint Dewpoint Depression Visibility Wind Speed Wind Dir Waves Ship Positions

Silver Wind

Operator: V Ships Leisure

Last reported at 2017-Jul-21 02:30 UTC. Time now 2017-Jul-21 02:32 UTC.
Position N 69°10' E 017°59'.

Length 156 m; draft 5.7 m.

Type: Passenger vessel. MMSI: 308814000.

Date/timePositionNaut miles runAvg speedWind from/ knotsBaromVisibWave heightAir tempDewpointWater temp
2017-Jul-21 02:30N 69°10' E 017°59'815.6
2017-Jul-21 02:00N 69°07' E 017°39'815.2
2017-Jul-21 01:30N 69°03' E 017°21'815.7
2017-Jul-21 01:00N 68°57' E 017°08'816.1
2017-Jul-21 00:30N 68°50' E 016°55'815.7
2017-Jul-21 00:00N 68°43' E 016°44'815.0
2017-Jul-20 23:30N 68°37' E 016°34'611.1
2017-Jul-20 23:00N 68°34' E 016°21'714.1
2017-Jul-20 22:30N 68°29' E 016°07'815.7
2017-Jul-20 22:00N 68°22' E 015°60'815.4
2017-Jul-20 21:30N 68°16' E 015°46'815.3
2017-Jul-20 21:00N 68°12' E 015°29'713.6
2017-Jul-20 20:30N 68°10' E 015°11'4 8.2
2017-Jul-20 20:00N 68°07' E 015°03'2 3.9
2017-Jul-20 19:30N 68°06' E 014°58'611.3
2017-Jul-20 18:59N 68°12' E 014°55'815.5
2017-Jul-20 18:30N 68°19' E 014°58'2 4.9
2017-Jul-20 17:59N 68°22' E 014°57'3 5.4
2017-Jul-20 17:30N 68°19' E 014°58'611.6
2017-Jul-20 17:00N 68°14' E 014°54'5 9.3
2017-Jul-20 16:30N 68°10' E 014°46'5 9.9
2017-Jul-20 15:59N 68°13' E 014°34'0 0.1
2017-Jul-20 15:29N 68°13' E 014°34'0 0.0
2017-Jul-20 14:59N 68°13' E 014°34'0 0.0
2017-Jul-20 13:59N 68°13' E 014°34'0 0.0
2017-Jul-20 13:29N 68°13' E 014°34'0 0.0
2017-Jul-20 12:59N 68°13' E 014°34'0 0.0
2017-Jul-20 12:29N 68°13' E 014°34'0 0.0
2017-Jul-20 11:59N 68°13' E 014°34'0 0.0
2017-Jul-20 11:29N 68°13' E 014°34'0 0.0
2017-Jul-20 10:59N 68°13' E 014°34'0 0.0
2017-Jul-20 10:29N 68°13' E 014°34'0 0.0
2017-Jul-20 09:59N 68°13' E 014°34'0 0.0
2017-Jul-20 09:29N 68°13' E 014°34'0 0.0
2017-Jul-20 08:59N 68°13' E 014°34'0 0.0
2017-Jul-20 08:29N 68°13' E 014°34'0 0.0
2017-Jul-20 07:59N 68°13' E 014°34'0 0.0
2017-Jul-20 07:29N 68°13' E 014°34'0 0.0
2017-Jul-20 06:59N 68°13' E 014°34'0 0.0
2017-Jul-20 06:29N 68°13' E 014°34'0 0.0
2017-Jul-20 05:59N 68°13' E 014°34'0 0.9
2017-Jul-20 05:30N 68°13' E 014°34'612.0
2017-Jul-20 05:00N 68°07' E 014°30'612.9
2017-Jul-20 04:30N 68°01' E 014°24'713.3
2017-Jul-20 04:00N 67°54' E 014°18'713.2
2017-Jul-20 03:30N 67°48' E 014°13'713.0
2017-Jul-20 03:00N 67°42' E 014°12'713.3
2017-Jul-20 02:30N 67°35' E 014°16'713.4
2017-Jul-20 02:00N 67°29' E 014°23'613.0
2017-Jul-20 01:30N 67°23' E 014°25'714.1
2017-Jul-20 01:00N 67°17' E 014°15'714.0
2017-Jul-20 00:30N 67°11' E 014°05'714.1
2017-Jul-20 00:00N 67°05' E 013°56'714.4
2017-Jul-19 23:30N 66°60' E 013°43'612.5
2017-Jul-19 23:00N 66°57' E 013°29'611.6
2017-Jul-19 22:30N 66°52' E 013°21'612.6
2017-Jul-19 22:00N 66°46' E 013°14'714.0
2017-Jul-19 21:30N 66°40' E 013°07'713.2
2017-Jul-19 21:00N 66°33' E 013°03'510.2
2017-Jul-19 20:30N 66°28' E 012°60'714.2
2017-Jul-19 20:00N 66°21' E 012°58'714.0
2017-Jul-19 19:30N 66°14' E 012°54'714.2
2017-Jul-19 19:00N 66°08' E 012°47'714.0
2017-Jul-19 18:30N 66°02' E 012°36'713.8
2017-Jul-19 18:00N 65°57' E 012°26'713.8
2017-Jul-19 17:30N 65°50' E 012°22'713.9
2017-Jul-19 17:00N 65°44' E 012°17'713.8
2017-Jul-19 16:30N 65°37' E 012°12'713.6
2017-Jul-19 16:00N 65°32' E 012°02'713.2
2017-Jul-19 15:30N 65°25' E 011°56'611.4
2017-Jul-19 15:00N 65°20' E 012°02'714.0
2017-Jul-19 14:30N 65°14' E 011°55'713.9
2017-Jul-19 14:00N 65°07' E 011°49'714.3
2017-Jul-19 13:31N 65°01' E 011°42'713.8
2017-Jul-19 13:01N 64°57' E 011°29'714.0
2017-Jul-19 12:30N 64°52' E 011°17'611.7
2017-Jul-19 12:00N 64°48' E 011°07'714.2
2017-Jul-19 11:30N 64°43' E 010°55'713.9
2017-Jul-19 11:00N 64°40' E 010°40'714.0
2017-Jul-19 10:29N 64°37' E 010°25'713.9
2017-Jul-19 10:00N 64°34' E 010°11'5813.9
2017-Jul-19 05:51N 63°60' E 008°23'514.4
2017-Jul-19 05:30N 63°56' E 008°15'714.2
2017-Jul-19 05:00N 63°51' E 008°04'714.0
2017-Jul-19 04:30N 63°46' E 007°53'714.2
2017-Jul-19 04:00N 63°41' E 007°42'714.2
2017-Jul-19 03:29N 63°35' E 007°32'714.1
2017-Jul-19 03:00N 63°30' E 007°21'714.7
2017-Jul-19 02:31N 63°25' E 007°10'714.7
2017-Jul-19 02:00N 63°19' E 006°59'815.7
2017-Jul-19 01:30N 63°13' E 006°48'815.6
2017-Jul-19 01:00N 63°07' E 006°36'815.7
2017-Jul-19 00:30N 63°02' E 006°24'815.8
2017-Jul-19 00:00N 62°56' E 006°14'815.4
2017-Jul-18 23:30N 62°50' E 006°02'815.4
2017-Jul-18 23:00N 62°44' E 005°51'815.4
2017-Jul-18 22:30N 62°38' E 005°43'713.8
2017-Jul-18 22:00N 62°31' E 005°42'815.2
2017-Jul-18 21:30N 62°27' E 005°56'713.2
2017-Jul-18 21:00N 62°28' E 006°10'1 1.3
2017-Jul-18 20:29N 62°28' E 006°09'0 0.0
2017-Jul-18 19:59N 62°28' E 006°09'0 0.0
2017-Jul-18 19:29N 62°28' E 006°09'0 0.0
2017-Jul-18 18:59N 62°28' E 006°09'0 0.0
2017-Jul-18 18:29N 62°28' E 006°09'0 0.0
2017-Jul-18 17:59N 62°28' E 006°09'0 0.0
2017-Jul-18 17:29N 62°28' E 006°09'0 0.0
2017-Jul-18 16:59N 62°28' E 006°09'0 0.0
2017-Jul-18 16:29N 62°28' E 006°09'0 0.0
2017-Jul-18 15:59N 62°28' E 006°09'0 0.0
2017-Jul-18 15:29N 62°28' E 006°09'0 0.0
2017-Jul-18 14:59N 62°28' E 006°09'0 0.0
2017-Jul-18 13:56N 62°28' E 006°09'0 0.0
2017-Jul-18 13:29N 62°28' E 006°09'0 0.0
2017-Jul-18 12:59N 62°28' E 006°09'0 0.0
2017-Jul-18 12:29N 62°28' E 006°09'0 0.0
2017-Jul-18 11:59N 62°28' E 006°09'0 0.0
2017-Jul-18 11:29N 62°28' E 006°09'0 0.0
2017-Jul-18 10:59N 62°28' E 006°09'0 0.0
2017-Jul-18 10:29N 62°28' E 006°09'0 0.0
2017-Jul-18 09:59N 62°28' E 006°09'0 0.0
2017-Jul-18 09:29N 62°28' E 006°09'0 0.0
2017-Jul-18 08:59N 62°28' E 006°09'0 0.0
2017-Jul-18 08:29N 62°28' E 006°09'0 0.0
2017-Jul-18 07:59N 62°28' E 006°09'0 0.0
2017-Jul-18 07:30N 62°28' E 006°09'0 0.3
2017-Jul-18 07:00N 62°28' E 006°09'5 9.4
2017-Jul-18 06:30N 62°27' E 005°59'612.9
2017-Jul-18 06:00N 62°29' E 005°46'613.1
2017-Jul-18 05:30N 62°31' E 005°33'713.1
2017-Jul-18 05:00N 62°29' E 005°19'713.9
2017-Jul-18 04:30N 62°24' E 005°08'713.8
2017-Jul-18 04:00N 62°18' E 005°01'714.4
2017-Jul-18 03:30N 62°12' E 004°55'713.9
2017-Jul-18 03:00N 62°06' E 004°48'714.0
2017-Jul-18 02:30N 61°59' E 004°42'714.6
2017-Jul-18 02:00N 61°53' E 004°35'714.6
2017-Jul-18 01:30N 61°46' E 004°29'714.4
2017-Jul-18 01:00N 61°39' E 004°23'714.3
2017-Jul-18 00:29N 61°32' E 004°23'714.5
2017-Jul-18 00:00N 61°25' E 004°23'714.2
2017-Jul-17 23:30N 61°18' E 004°22'714.5
2017-Jul-17 23:00N 61°11' E 004°21'816.6
2017-Jul-17 22:30N 61°02' E 004°21'816.4
2017-Jul-17 22:00N 60°54' E 004°25'714.1
2017-Jul-17 21:30N 60°53' E 004°40'713.2
2017-Jul-17 21:00N 60°59' E 004°45'816.3
2017-Jul-17 20:30N 61°03' E 004°58'815.5
2017-Jul-17 20:00N 61°06' E 005°13'815.1
2017-Jul-17 19:30N 61°04' E 005°29'815.4
2017-Jul-17 19:00N 61°08' E 005°43'815.7
2017-Jul-17 18:30N 61°08' E 005°60'815.5
2017-Jul-17 18:00N 61°07' E 006°16'714.7
2017-Jul-17 17:29N 61°07' E 006°31'713.6
2017-Jul-17 16:59N 61°10' E 006°44'715.1
2017-Jul-17 16:30N 61°06' E 006°57'815.1
2017-Jul-17 16:00N 60°60' E 007°04'713.0
2017-Jul-17 15:30N 60°54' E 007°09'2 2.9
2017-Jul-17 14:59N 60°52' E 007°08'0 0.1
2017-Jul-17 14:29N 60°52' E 007°08'0 0.1
2017-Jul-17 13:59N 60°52' E 007°08'0 0.0
2017-Jul-17 13:23N 60°52' E 007°08'0 0.1
2017-Jul-17 12:59N 60°52' E 007°08'0 0.1
2017-Jul-17 12:29N 60°52' E 007°08'0 0.0
2017-Jul-17 11:59N 60°52' E 007°08'0 0.0
2017-Jul-17 11:29N 60°52' E 007°08'0 0.0
2017-Jul-17 10:59N 60°52' E 007°08'0 0.0
2017-Jul-17 10:29N 60°52' E 007°08'0 0.1
2017-Jul-17 09:59N 60°52' E 007°08'0 0.2
2017-Jul-17 09:29N 60°52' E 007°08'0 0.0
2017-Jul-17 08:59N 60°52' E 007°08'0 0.0
2017-Jul-17 08:29N 60°52' E 007°08'0 0.0
2017-Jul-17 07:59N 60°52' E 007°08'0 0.0
2017-Jul-17 07:29N 60°52' E 007°08'0 0.0
2017-Jul-17 06:59N 60°52' E 007°08'0 0.1
2017-Jul-17 06:29N 60°52' E 007°08'0 0.0
2017-Jul-17 05:59N 60°52' E 007°08'0 0.8
2017-Jul-17 05:30N 60°52' E 007°08'4 8.7
2017-Jul-17 05:00N 60°57' E 007°09'611.8
2017-Jul-17 04:30N 61°02' E 007°02'611.2
2017-Jul-17 04:00N 61°07' E 006°56'611.5
2017-Jul-17 03:30N 61°10' E 006°46'510.9
2017-Jul-17 03:00N 61°10' E 006°35'611.3
2017-Jul-17 02:30N 61°06' E 006°26'612.0
2017-Jul-17 02:00N 61°07' E 006°14'713.8
2017-Jul-17 01:30N 61°08' E 005°60'713.8
2017-Jul-17 01:00N 61°08' E 005°46'713.7
2017-Jul-17 00:29N 61°05' E 005°32'613.3
2017-Jul-17 00:00N 61°04' E 005°19'713.5
2017-Jul-16 23:30N 61°05' E 005°05'816.8
2017-Jul-16 23:00N 61°01' E 004°50'815.7
2017-Jul-16 22:30N 60°54' E 004°41'815.3
2017-Jul-16 22:00N 60°47' E 004°45'510.0
2017-Jul-16 21:30N 60°44' E 004°37'817.1
2017-Jul-16 21:00N 60°37' E 004°27'46216.4
2017-Jul-15 16:53N 52°60' E 002°27'818.0
2017-Jul-15 16:27N 52°52' E 002°26'917.3
2017-Jul-15 15:57N 52°43' E 002°23'917.5
2017-Jul-15 15:26N 52°34' E 002°22'1217.3
2017-Jul-15 14:45N 52°23' E 002°19'1216.5
2017-Jul-15 14:00N 52°10' E 002°17'1516.2
2017-Jul-15 13:05N 51°56' E 002°15'316.0
2017-Jul-15 12:53N 51°52' E 002°13'1415.6
2017-Jul-15 12:00N 51°41' E 002°02'715.1
2017-Jul-15 11:30N 51°35' E 001°54'815.8
2017-Jul-15 11:00N 51°31' E 001°43'816.0
2017-Jul-15 10:31N 51°27' E 001°32'612.7
2017-Jul-15 10:01N 51°28' E 001°22'816.1
2017-Jul-15 09:30N 51°29' E 001°09'815.4
2017-Jul-15 09:00N 51°29' E 000°57'917.2
2017-Jul-15 08:30N 51°30' E 000°43'917.2
2017-Jul-15 08:01N 51°30' E 000°30'510.8
2017-Jul-15 07:31N 51°27' E 000°23'4 7.4
2017-Jul-15 07:01N 51°27' E 000°17'612.4
2017-Jul-15 06:30N 51°31' E 000°08'5 9.9
2017-Jul-15 06:00N 51°30' E 000°00'3 3.1
2017-Jul-15 04:57N 51°30' W 000°05'0 0.1
2017-Jul-15 04:30N 51°30' W 000°05'0 0.0
2017-Jul-15 04:00N 51°30' W 000°05'0 0.0
2017-Jul-15 03:30N 51°30' W 000°05'0 0.0
2017-Jul-15 03:00N 51°30' W 000°05'0 0.0
2017-Jul-15 02:30N 51°30' W 000°05'0 0.0
2017-Jul-15 02:00N 51°30' W 000°05'0 0.0
2017-Jul-14 20:42N 51°30' W 000°05'0 0.0
2017-Jul-14 20:18N 51°30' W 000°05'0 0.0
2017-Jul-14 19:54N 51°30' W 000°05'0 0.0
2017-Jul-14 19:30N 51°30' W 000°05'0 0.0
2017-Jul-14 19:00N 51°30' W 000°05'0 0.0
2017-Jul-14 18:24N 51°30' W 000°05'0 0.0
2017-Jul-14 18:00N 51°30' W 000°05'0 0.0
2017-Jul-14 17:30N 51°30' W 000°05'0 0.0
2017-Jul-14 17:00N 51°30' W 000°05'0 0.0
2017-Jul-14 16:30N 51°30' W 000°05'0 0.0
2017-Jul-14 16:00N 51°30' W 000°05'0 0.0
2017-Jul-14 15:30N 51°30' W 000°05'0 0.0
2017-Jul-14 14:42N 51°30' W 000°05'0 0.0
2017-Jul-14 14:30N 51°30' W 000°05'0 0.0
2017-Jul-14 07:18N 51°30' W 000°05'0 0.0
2017-Jul-14 06:54N 51°30' W 000°05'0 0.0
2017-Jul-14 06:30N 51°30' W 000°05'0 0.0
2017-Jul-14 05:54N 51°30' W 000°05'0 0.0
2017-Jul-14 05:30N 51°30' W 000°05'0 0.0
2017-Jul-14 05:00N 51°30' W 000°05'0 0.0
2017-Jul-14 04:30N 51°30' W 000°05'0 0.0
2017-Jul-14 04:00N 51°30' W 000°05'0 0.0
2017-Jul-14 03:30N 51°30' W 000°05'0 0.0
2017-Jul-14 03:00N 51°30' W 000°05'0 0.0
2017-Jul-14 02:30N 51°30' W 000°05'0 0.0
2017-Jul-13 19:30N 51°30' W 000°05'0 0.0
2017-Jul-13 18:48N 51°30' W 000°05'0 0.0
2017-Jul-13 18:30N 51°30' W 000°05'0 0.0
2017-Jul-13 18:00N 51°30' W 000°05'0 0.0
2017-Jul-13 17:30N 51°30' W 000°05'3 2.6
2017-Jul-13 16:22N 51°30' W 000°00'3 7.8
2017-Jul-13 16:00N 51°30' E 000°04'4 8.9
2017-Jul-13 15:30N 51°29' E 000°11'5 9.8
2017-Jul-13 15:01N 51°28' E 000°19'4 7.3
2017-Jul-13 14:31N 51°27' E 000°25'3 6.6
2017-Jul-13 14:01N 51°30' E 000°28'4 8.0
2017-Jul-13 13:31N 51°30' E 000°34'510.1
2017-Jul-13 13:01N 51°30' E 000°42'612.7
2017-Jul-13 12:30N 51°30' E 000°53'612.4
2017-Jul-13 12:00N 51°30' E 001°03'713.5
2017-Jul-13 11:30N 51°29' E 001°13'816.4
2017-Jul-13 11:00N 51°27' E 001°26'5 9.5
2017-Jul-13 10:30N 51°27' E 001°34'714.9
2017-Jul-13 10:01N 51°29' E 001°46'815.1
2017-Jul-13 09:30N 51°29' E 001°58'713.1
2017-Jul-13 09:00N 51°34' E 002°05'9212.8
2017-Jul-13 01:47N 52°31' E 004°03'413.7
2017-Jul-13 01:29N 52°31' E 004°10'613.5
2017-Jul-13 01:00N 52°30' E 004°20'612.5
2017-Jul-13 00:30N 52°29' E 004°30'4 7.7
2017-Jul-13 00:00N 52°28' E 004°36'1 1.8
2017-Jul-12 23:30N 52°28' E 004°38'4 8.0
2017-Jul-12 23:00N 52°26' E 004°44'4 8.5
2017-Jul-12 22:31N 52°25' E 004°51'3 6.7
2017-Jul-12 22:01N 52°23' E 004°55'0 0.5
2017-Jul-12 21:28N 52°23' E 004°55'0 0.0
2017-Jul-12 20:58N 52°23' E 004°55'0 0.0
2017-Jul-12 20:30N 52°23' E 004°55'0 0.0
2017-Jul-12 20:00N 52°23' E 004°55'0 0.0
2017-Jul-12 19:30N 52°23' E 004°55'0 0.0
2017-Jul-12 19:00N 52°23' E 004°55'0 0.0
2017-Jul-12 18:27N 52°23' E 004°55'0 0.0
2017-Jul-12 18:00N 52°23' E 004°55'0 0.0
2017-Jul-12 17:30N 52°23' E 004°55'0 0.0
2017-Jul-12 17:00N 52°23' E 004°55'0 0.0
2017-Jul-12 16:21N 52°23' E 004°55'0 0.0
2017-Jul-12 16:00N 52°23' E 004°55'0 0.0
2017-Jul-12 15:30N 52°23' E 004°55'0 0.0
2017-Jul-12 15:00N 52°23' E 004°55'0 0.0
2017-Jul-12 14:00N 52°23' E 004°55'0 0.0
2017-Jul-12 13:30N 52°23' E 004°55'0 0.0
2017-Jul-12 13:00N 52°23' E 004°55'0 0.0
2017-Jul-12 12:30N 52°23' E 004°55'0 0.1
2017-Jul-12 12:00N 52°23' E 004°55'2 4.3
2017-Jul-12 11:31N 52°24' E 004°53'4 7.8
2017-Jul-12 11:00N 52°26' E 004°47'4 8.8
2017-Jul-12 10:30N 52°28' E 004°40'2 4.5
2017-Jul-12 10:00N 52°28' E 004°37'1 1.6
2017-Jul-12 09:30N 52°28' E 004°35'4 8.1
2017-Jul-12 09:00N 52°27' E 004°29'0 0.6
2017-Jul-12 08:30N 52°27' E 004°29'2 3.6
2017-Jul-12 08:00N 52°28' E 004°27'510.3
2017-Jul-12 07:30N 52°28' E 004°18'612.0
2017-Jul-12 07:00N 52°30' E 004°09'713.1
2017-Jul-12 06:30N 52°36' E 004°04'713.0
2017-Jul-12 06:00N 52°42' E 004°00'712.7
2017-Jul-12 05:26N 52°49' E 003°58'16514.1
2017-Jul-11 17:40N 54°01' E 008°09'412.1
2017-Jul-11 17:21N 54°00' E 008°15'616.2
2017-Jul-11 16:59N 53°59' E 008°25'816.8
2017-Jul-11 16:30N 53°57' E 008°38'815.4
2017-Jul-11 16:00N 53°51' E 008°46'713.4
2017-Jul-11 15:30N 53°51' E 008°57'611.9
2017-Jul-11 15:01N 53°53' E 009°07'1 2.5
2017-Jul-11 14:30N 53°54' E 009°09'1 1.5
2017-Jul-11 14:00N 53°54' E 009°10'2 4.6
2017-Jul-11 13:30N 53°56' E 009°12'4 7.6
2017-Jul-11 13:01N 53°59' E 009°16'4 7.4
2017-Jul-11 12:30N 54°02' E 009°18'2 4.1
2017-Jul-11 11:58N 54°04' E 009°19'4 8.0
2017-Jul-11 11:30N 54°08' E 009°20'49 5.9
2017-Jul-11 03:17N 54°33' E 010°32'3 9.5
2017-Jul-11 03:00N 54°34' E 010°36'5 9.5
2017-Jul-11 02:30N 54°35' E 010°44'  
Track history (hours):
 
Tides and Currents Weather Stations Pressure Air Temp Water Temp Dewpoint Dewpoint Depression Visibility Wind Speed Wind Dir Waves Ship Positions

Silver Wind

Operator: V Ships Leisure

Last reported at 2017-Jul-21 02:30 UTC. Time now 2017-Jul-21 02:32 UTC.
Position N 69°10' E 017°59'.

Length 156 m; draft 5.7 m.

Type: Passenger vessel. MMSI: 308814000.

Date/timePositionNaut miles runAvg speedWind from/ knotsBaromVisibWave heightAir tempDewpointWater temp
2017-Jul-21 02:30N 69°10' E 017°59'815.6
2017-Jul-21 02:00N 69°07' E 017°39'815.2
2017-Jul-21 01:30N 69°03' E 017°21'815.7
2017-Jul-21 01:00N 68°57' E 017°08'816.1
2017-Jul-21 00:30N 68°50' E 016°55'815.7
2017-Jul-21 00:00N 68°43' E 016°44'815.0
2017-Jul-20 23:30N 68°37' E 016°34'611.1
2017-Jul-20 23:00N 68°34' E 016°21'714.1
2017-Jul-20 22:30N 68°29' E 016°07'815.7
2017-Jul-20 22:00N 68°22' E 015°60'815.4
2017-Jul-20 21:30N 68°16' E 015°46'815.3
2017-Jul-20 21:00N 68°12' E 015°29'713.6
2017-Jul-20 20:30N 68°10' E 015°11'4 8.2
2017-Jul-20 20:00N 68°07' E 015°03'2 3.9
2017-Jul-20 19:30N 68°06' E 014°58'611.3
2017-Jul-20 18:59N 68°12' E 014°55'815.5
2017-Jul-20 18:30N 68°19' E 014°58'2 4.9
2017-Jul-20 17:59N 68°22' E 014°57'3 5.4
2017-Jul-20 17:30N 68°19' E 014°58'611.6
2017-Jul-20 17:00N 68°14' E 014°54'5 9.3
2017-Jul-20 16:30N 68°10' E 014°46'5 9.9
2017-Jul-20 15:59N 68°13' E 014°34'0 0.1
2017-Jul-20 15:29N 68°13' E 014°34'0 0.0
2017-Jul-20 14:59N 68°13' E 014°34'0 0.0
2017-Jul-20 13:59N 68°13' E 014°34'0 0.0
2017-Jul-20 13:29N 68°13' E 014°34'0 0.0
2017-Jul-20 12:59N 68°13' E 014°34'0 0.0
2017-Jul-20 12:29N 68°13' E 014°34'0 0.0
2017-Jul-20 11:59N 68°13' E 014°34'0 0.0
2017-Jul-20 11:29N 68°13' E 014°34'0 0.0
2017-Jul-20 10:59N 68°13' E 014°34'0 0.0
2017-Jul-20 10:29N 68°13' E 014°34'0 0.0
2017-Jul-20 09:59N 68°13' E 014°34'0 0.0
2017-Jul-20 09:29N 68°13' E 014°34'0 0.0
2017-Jul-20 08:59N 68°13' E 014°34'0 0.0
2017-Jul-20 08:29N 68°13' E 014°34'0 0.0
2017-Jul-20 07:59N 68°13' E 014°34'0 0.0
2017-Jul-20 07:29N 68°13' E 014°34'0 0.0
2017-Jul-20 06:59N 68°13' E 014°34'0 0.0
2017-Jul-20 06:29N 68°13' E 014°34'0 0.0
2017-Jul-20 05:59N 68°13' E 014°34'0 0.9
2017-Jul-20 05:30N 68°13' E 014°34'612.0
2017-Jul-20 05:00N 68°07' E 014°30'612.9
2017-Jul-20 04:30N 68°01' E 014°24'713.3
2017-Jul-20 04:00N 67°54' E 014°18'713.2
2017-Jul-20 03:30N 67°48' E 014°13'713.0
2017-Jul-20 03:00N 67°42' E 014°12'713.3
2017-Jul-20 02:30N 67°35' E 014°16'713.4
2017-Jul-20 02:00N 67°29' E 014°23'613.0
2017-Jul-20 01:30N 67°23' E 014°25'714.1
2017-Jul-20 01:00N 67°17' E 014°15'714.0
2017-Jul-20 00:30N 67°11' E 014°05'714.1
2017-Jul-20 00:00N 67°05' E 013°56'714.4
2017-Jul-19 23:30N 66°60' E 013°43'612.5
2017-Jul-19 23:00N 66°57' E 013°29'611.6
2017-Jul-19 22:30N 66°52' E 013°21'612.6
2017-Jul-19 22:00N 66°46' E 013°14'714.0
2017-Jul-19 21:30N 66°40' E 013°07'713.2
2017-Jul-19 21:00N 66°33' E 013°03'510.2
2017-Jul-19 20:30N 66°28' E 012°60'714.2
2017-Jul-19 20:00N 66°21' E 012°58'714.0
2017-Jul-19 19:30N 66°14' E 012°54'714.2
2017-Jul-19 19:00N 66°08' E 012°47'714.0
2017-Jul-19 18:30N 66°02' E 012°36'713.8
2017-Jul-19 18:00N 65°57' E 012°26'713.8
2017-Jul-19 17:30N 65°50' E 012°22'713.9
2017-Jul-19 17:00N 65°44' E 012°17'713.8
2017-Jul-19 16:30N 65°37' E 012°12'713.6
2017-Jul-19 16:00N 65°32' E 012°02'713.2
2017-Jul-19 15:30N 65°25' E 011°56'611.4
2017-Jul-19 15:00N 65°20' E 012°02'714.0
2017-Jul-19 14:30N 65°14' E 011°55'713.9
2017-Jul-19 14:00N 65°07' E 011°49'714.3
2017-Jul-19 13:31N 65°01' E 011°42'713.8
2017-Jul-19 13:01N 64°57' E 011°29'714.0
2017-Jul-19 12:30N 64°52' E 011°17'611.7
2017-Jul-19 12:00N 64°48' E 011°07'714.2
2017-Jul-19 11:30N 64°43' E 010°55'713.9
2017-Jul-19 11:00N 64°40' E 010°40'714.0
2017-Jul-19 10:29N 64°37' E 010°25'713.9
2017-Jul-19 10:00N 64°34' E 010°11'5813.9
2017-Jul-19 05:51N 63°60' E 008°23'514.4
2017-Jul-19 05:30N 63°56' E 008°15'714.2
2017-Jul-19 05:00N 63°51' E 008°04'714.0
2017-Jul-19 04:30N 63°46' E 007°53'714.2
2017-Jul-19 04:00N 63°41' E 007°42'714.2
2017-Jul-19 03:29N 63°35' E 007°32'714.1
2017-Jul-19 03:00N 63°30' E 007°21'714.7
2017-Jul-19 02:31N 63°25' E 007°10'714.7
2017-Jul-19 02:00N 63°19' E 006°59'815.7
2017-Jul-19 01:30N 63°13' E 006°48'815.6
2017-Jul-19 01:00N 63°07' E 006°36'815.7
2017-Jul-19 00:30N 63°02' E 006°24'815.8
2017-Jul-19 00:00N 62°56' E 006°14'815.4
2017-Jul-18 23:30N 62°50' E 006°02'815.4
2017-Jul-18 23:00N 62°44' E 005°51'815.4
2017-Jul-18 22:30N 62°38' E 005°43'713.8
2017-Jul-18 22:00N 62°31' E 005°42'815.2
2017-Jul-18 21:30N 62°27' E 005°56'713.2
2017-Jul-18 21:00N 62°28' E 006°10'1 1.3
2017-Jul-18 20:29N 62°28' E 006°09'0 0.0
2017-Jul-18 19:59N 62°28' E 006°09'0 0.0
2017-Jul-18 19:29N 62°28' E 006°09'0 0.0
2017-Jul-18 18:59N 62°28' E 006°09'0 0.0
2017-Jul-18 18:29N 62°28' E 006°09'0 0.0
2017-Jul-18 17:59N 62°28' E 006°09'0 0.0
2017-Jul-18 17:29N 62°28' E 006°09'0 0.0
2017-Jul-18 16:59N 62°28' E 006°09'0 0.0
2017-Jul-18 16:29N 62°28' E 006°09'0 0.0
2017-Jul-18 15:59N 62°28' E 006°09'0 0.0
2017-Jul-18 15:29N 62°28' E 006°09'0 0.0
2017-Jul-18 14:59N 62°28' E 006°09'0 0.0
2017-Jul-18 13:56N 62°28' E 006°09'0 0.0
2017-Jul-18 13:29N 62°28' E 006°09'0 0.0
2017-Jul-18 12:59N 62°28' E 006°09'0 0.0
2017-Jul-18 12:29N 62°28' E 006°09'0 0.0
2017-Jul-18 11:59N 62°28' E 006°09'0 0.0
2017-Jul-18 11:29N 62°28' E 006°09'0 0.0
2017-Jul-18 10:59N 62°28' E 006°09'0 0.0
2017-Jul-18 10:29N 62°28' E 006°09'0 0.0
2017-Jul-18 09:59N 62°28' E 006°09'0 0.0
2017-Jul-18 09:29N 62°28' E 006°09'0 0.0
2017-Jul-18 08:59N 62°28' E 006°09'0 0.0
2017-Jul-18 08:29N 62°28' E 006°09'0 0.0
2017-Jul-18 07:59N 62°28' E 006°09'0 0.0
2017-Jul-18 07:30N 62°28' E 006°09'0 0.3
2017-Jul-18 07:00N 62°28' E 006°09'5 9.4
2017-Jul-18 06:30N 62°27' E 005°59'612.9
2017-Jul-18 06:00N 62°29' E 005°46'613.1
2017-Jul-18 05:30N 62°31' E 005°33'713.1
2017-Jul-18 05:00N 62°29' E 005°19'713.9
2017-Jul-18 04:30N 62°24' E 005°08'713.8
2017-Jul-18 04:00N 62°18' E 005°01'714.4
2017-Jul-18 03:30N 62°12' E 004°55'713.9
2017-Jul-18 03:00N 62°06' E 004°48'714.0
2017-Jul-18 02:30N 61°59' E 004°42'714.6
2017-Jul-18 02:00N 61°53' E 004°35'714.6
2017-Jul-18 01:30N 61°46' E 004°29'714.4
2017-Jul-18 01:00N 61°39' E 004°23'714.3
2017-Jul-18 00:29N 61°32' E 004°23'714.5
2017-Jul-18 00:00N 61°25' E 004°23'714.2
2017-Jul-17 23:30N 61°18' E 004°22'714.5
2017-Jul-17 23:00N 61°11' E 004°21'816.6
2017-Jul-17 22:30N 61°02' E 004°21'816.4
2017-Jul-17 22:00N 60°54' E 004°25'714.1
2017-Jul-17 21:30N 60°53' E 004°40'713.2
2017-Jul-17 21:00N 60°59' E 004°45'816.3
2017-Jul-17 20:30N 61°03' E 004°58'815.5
2017-Jul-17 20:00N 61°06' E 005°13'815.1
2017-Jul-17 19:30N 61°04' E 005°29'815.4
2017-Jul-17 19:00N 61°08' E 005°43'815.7
2017-Jul-17 18:30N 61°08' E 005°60'815.5
2017-Jul-17 18:00N 61°07' E 006°16'714.7
2017-Jul-17 17:29N 61°07' E 006°31'713.6
2017-Jul-17 16:59N 61°10' E 006°44'715.1
2017-Jul-17 16:30N 61°06' E 006°57'815.1
2017-Jul-17 16:00N 60°60' E 007°04'713.0
2017-Jul-17 15:30N 60°54' E 007°09'2 2.9
2017-Jul-17 14:59N 60°52' E 007°08'0 0.1
2017-Jul-17 14:29N 60°52' E 007°08'0 0.1
2017-Jul-17 13:59N 60°52' E 007°08'0 0.0
2017-Jul-17 13:23N 60°52' E 007°08'0 0.1
2017-Jul-17 12:59N 60°52' E 007°08'0 0.1
2017-Jul-17 12:29N 60°52' E 007°08'0 0.0
2017-Jul-17 11:59N 60°52' E 007°08'0 0.0
2017-Jul-17 11:29N 60°52' E 007°08'0 0.0
2017-Jul-17 10:59N 60°52' E 007°08'0 0.0
2017-Jul-17 10:29N 60°52' E 007°08'0 0.1
2017-Jul-17 09:59N 60°52' E 007°08'0 0.2
2017-Jul-17 09:29N 60°52' E 007°08'0 0.0
2017-Jul-17 08:59N 60°52' E 007°08'0 0.0
2017-Jul-17 08:29N 60°52' E 007°08'0 0.0
2017-Jul-17 07:59N 60°52' E 007°08'0 0.0
2017-Jul-17 07:29N 60°52' E 007°08'0 0.0
2017-Jul-17 06:59N 60°52' E 007°08'0 0.1
2017-Jul-17 06:29N 60°52' E 007°08'0 0.0
2017-Jul-17 05:59N 60°52' E 007°08'0 0.8
2017-Jul-17 05:30N 60°52' E 007°08'4 8.7
2017-Jul-17 05:00N 60°57' E 007°09'611.8
2017-Jul-17 04:30N 61°02' E 007°02'611.2
2017-Jul-17 04:00N 61°07' E 006°56'611.5
2017-Jul-17 03:30N 61°10' E 006°46'510.9
2017-Jul-17 03:00N 61°10' E 006°35'611.3
2017-Jul-17 02:30N 61°06' E 006°26'612.0
2017-Jul-17 02:00N 61°07' E 006°14'713.8
2017-Jul-17 01:30N 61°08' E 005°60'713.8
2017-Jul-17 01:00N 61°08' E 005°46'713.7
2017-Jul-17 00:29N 61°05' E 005°32'613.3
2017-Jul-17 00:00N 61°04' E 005°19'713.5
2017-Jul-16 23:30N 61°05' E 005°05'816.8
2017-Jul-16 23:00N 61°01' E 004°50'815.7
2017-Jul-16 22:30N 60°54' E 004°41'815.3
2017-Jul-16 22:00N 60°47' E 004°45'510.0
2017-Jul-16 21:30N 60°44' E 004°37'817.1
2017-Jul-16 21:00N 60°37' E 004°27'46216.4
2017-Jul-15 16:53N 52°60' E 002°27'818.0
2017-Jul-15 16:27N 52°52' E 002°26'917.3
2017-Jul-15 15:57N 52°43' E 002°23'917.5
2017-Jul-15 15:26N 52°34' E 002°22'1217.3
2017-Jul-15 14:45N 52°23' E 002°19'1216.5
2017-Jul-15 14:00N 52°10' E 002°17'1516.2
2017-Jul-15 13:05N 51°56' E 002°15'316.0
2017-Jul-15 12:53N 51°52' E 002°13'1415.6
2017-Jul-15 12:00N 51°41' E 002°02'715.1
2017-Jul-15 11:30N 51°35' E 001°54'815.8
2017-Jul-15 11:00N 51°31' E 001°43'816.0
2017-Jul-15 10:31N 51°27' E 001°32'612.7
2017-Jul-15 10:01N 51°28' E 001°22'816.1
2017-Jul-15 09:30N 51°29' E 001°09'815.4
2017-Jul-15 09:00N 51°29' E 000°57'917.2
2017-Jul-15 08:30N 51°30' E 000°43'917.2
2017-Jul-15 08:01N 51°30' E 000°30'510.8
2017-Jul-15 07:31N 51°27' E 000°23'4 7.4
2017-Jul-15 07:01N 51°27' E 000°17'612.4
2017-Jul-15 06:30N 51°31' E 000°08'5 9.9
2017-Jul-15 06:00N 51°30' E 000°00'3 3.1
2017-Jul-15 04:57N 51°30' W 000°05'0 0.1
2017-Jul-15 04:30N 51°30' W 000°05'0 0.0
2017-Jul-15 04:00N 51°30' W 000°05'0 0.0
2017-Jul-15 03:30N 51°30' W 000°05'0 0.0
2017-Jul-15 03:00N 51°30' W 000°05'0 0.0
2017-Jul-15 02:30N 51°30' W 000°05'0 0.0
2017-Jul-15 02:00N 51°30' W 000°05'0 0.0
2017-Jul-14 20:42N 51°30' W 000°05'0 0.0
2017-Jul-14 20:18N 51°30' W 000°05'0 0.0
2017-Jul-14 19:54N 51°30' W 000°05'0 0.0
2017-Jul-14 19:30N 51°30' W 000°05'0 0.0
2017-Jul-14 19:00N 51°30' W 000°05'0 0.0
2017-Jul-14 18:24N 51°30' W 000°05'0 0.0
2017-Jul-14 18:00N 51°30' W 000°05'0 0.0
2017-Jul-14 17:30N 51°30' W 000°05'0 0.0
2017-Jul-14 17:00N 51°30' W 000°05'0 0.0
2017-Jul-14 16:30N 51°30' W 000°05'0 0.0
2017-Jul-14 16:00N 51°30' W 000°05'0 0.0
2017-Jul-14 15:30N 51°30' W 000°05'0 0.0
2017-Jul-14 14:42N 51°30' W 000°05'0 0.0
2017-Jul-14 14:30N 51°30' W 000°05'0 0.0
2017-Jul-14 07:18N 51°30' W 000°05'0 0.0
2017-Jul-14 06:54N 51°30' W 000°05'0 0.0
2017-Jul-14 06:30N 51°30' W 000°05'0 0.0
2017-Jul-14 05:54N 51°30' W 000°05'0 0.0
2017-Jul-14 05:30N 51°30' W 000°05'0 0.0
2017-Jul-14 05:00N 51°30' W 000°05'0 0.0
2017-Jul-14 04:30N 51°30' W 000°05'0 0.0
2017-Jul-14 04:00N 51°30' W 000°05'0 0.0
2017-Jul-14 03:30N 51°30' W 000°05'0 0.0
2017-Jul-14 03:00N 51°30' W 000°05'0 0.0
2017-Jul-14 02:30N 51°30' W 000°05'0 0.0
2017-Jul-13 19:30N 51°30' W 000°05'0 0.0
2017-Jul-13 18:48N 51°30' W 000°05'0 0.0
2017-Jul-13 18:30N 51°30' W 000°05'0 0.0
2017-Jul-13 18:00N 51°30' W 000°05'0 0.0
2017-Jul-13 17:30N 51°30' W 000°05'3 2.6
2017-Jul-13 16:22N 51°30' W 000°00'3 7.8
2017-Jul-13 16:00N 51°30' E 000°04'4 8.9
2017-Jul-13 15:30N 51°29' E 000°11'5 9.8
2017-Jul-13 15:01N 51°28' E 000°19'4 7.3
2017-Jul-13 14:31N 51°27' E 000°25'3 6.6
2017-Jul-13 14:01N 51°30' E 000°28'4 8.0
2017-Jul-13 13:31N 51°30' E 000°34'510.1
2017-Jul-13 13:01N 51°30' E 000°42'612.7
2017-Jul-13 12:30N 51°30' E 000°53'612.4
2017-Jul-13 12:00N 51°30' E 001°03'713.5
2017-Jul-13 11:30N 51°29' E 001°13'816.4
2017-Jul-13 11:00N 51°27' E 001°26'5 9.5
2017-Jul-13 10:30N 51°27' E 001°34'714.9
2017-Jul-13 10:01N 51°29' E 001°46'815.1
2017-Jul-13 09:30N 51°29' E 001°58'713.1
2017-Jul-13 09:00N 51°34' E 002°05'9212.8
2017-Jul-13 01:47N 52°31' E 004°03'413.7
2017-Jul-13 01:29N 52°31' E 004°10'613.5
2017-Jul-13 01:00N 52°30' E 004°20'612.5
2017-Jul-13 00:30N 52°29' E 004°30'4 7.7
2017-Jul-13 00:00N 52°28' E 004°36'1 1.8
2017-Jul-12 23:30N 52°28' E 004°38'4 8.0
2017-Jul-12 23:00N 52°26' E 004°44'4 8.5
2017-Jul-12 22:31N 52°25' E 004°51'3 6.7
2017-Jul-12 22:01N 52°23' E 004°55'0 0.5
2017-Jul-12 21:28N 52°23' E 004°55'0 0.0
2017-Jul-12 20:58N 52°23' E 004°55'0 0.0
2017-Jul-12 20:30N 52°23' E 004°55'0 0.0
2017-Jul-12 20:00N 52°23' E 004°55'0 0.0
2017-Jul-12 19:30N 52°23' E 004°55'0 0.0
2017-Jul-12 19:00N 52°23' E 004°55'0 0.0
2017-Jul-12 18:27N 52°23' E 004°55'0 0.0
2017-Jul-12 18:00N 52°23' E 004°55'0 0.0
2017-Jul-12 17:30N 52°23' E 004°55'0 0.0
2017-Jul-12 17:00N 52°23' E 004°55'0 0.0
2017-Jul-12 16:21N 52°23' E 004°55'0 0.0
2017-Jul-12 16:00N 52°23' E 004°55'0 0.0
2017-Jul-12 15:30N 52°23' E 004°55'0 0.0
2017-Jul-12 15:00N 52°23' E 004°55'0 0.0
2017-Jul-12 14:00N 52°23' E 004°55'0 0.0
2017-Jul-12 13:30N 52°23' E 004°55'0 0.0
2017-Jul-12 13:00N 52°23' E 004°55'0 0.0
2017-Jul-12 12:30N 52°23' E 004°55'0 0.1
2017-Jul-12 12:00N 52°23' E 004°55'2 4.3
2017-Jul-12 11:31N 52°24' E 004°53'4 7.8
2017-Jul-12 11:00N 52°26' E 004°47'4 8.8
2017-Jul-12 10:30N 52°28' E 004°40'2 4.5
2017-Jul-12 10:00N 52°28' E 004°37'1 1.6
2017-Jul-12 09:30N 52°28' E 004°35'4 8.1
2017-Jul-12 09:00N 52°27' E 004°29'0 0.6
2017-Jul-12 08:30N 52°27' E 004°29'2 3.6
2017-Jul-12 08:00N 52°28' E 004°27'510.3
2017-Jul-12 07:30N 52°28' E 004°18'612.0
2017-Jul-12 07:00N 52°30' E 004°09'713.1
2017-Jul-12 06:30N 52°36' E 004°04'713.0
2017-Jul-12 06:00N 52°42' E 004°00'712.7
2017-Jul-12 05:26N 52°49' E 003°58'16514.1
2017-Jul-11 17:40N 54°01' E 008°09'412.1
2017-Jul-11 17:21N 54°00' E 008°15'616.2
2017-Jul-11 16:59N 53°59' E 008°25'816.8
2017-Jul-11 16:30N 53°57' E 008°38'815.4
2017-Jul-11 16:00N 53°51' E 008°46'713.4
2017-Jul-11 15:30N 53°51' E 008°57'611.9
2017-Jul-11 15:01N 53°53' E 009°07'1 2.5
2017-Jul-11 14:30N 53°54' E 009°09'1 1.5
2017-Jul-11 14:00N 53°54' E 009°10'2 4.6
2017-Jul-11 13:30N 53°56' E 009°12'4 7.6
2017-Jul-11 13:01N 53°59' E 009°16'4 7.4
2017-Jul-11 12:30N 54°02' E 009°18'2 4.1
2017-Jul-11 11:58N 54°04' E 009°19'4 8.0
2017-Jul-11 11:30N 54°08' E 009°20'49 5.9
2017-Jul-11 03:17N 54°33' E 010°32'3 9.5
2017-Jul-11 03:00N 54°34' E 010°36'5 9.5
2017-Jul-11 02:30N 54°35' E 010°44'  

Dump ship's entire track history